createdAt,value
2024-02-19T00:00:39.089Z,57.92
2024-02-19T00:01:39.099Z,60.51
2024-02-19T00:02:39.098Z,62.40
2024-02-19T00:03:39.211Z,61.16
2024-02-19T00:04:39.290Z,62.49
2024-02-19T00:05:40.251Z,59.42
2024-02-19T00:06:39.432Z,58.37
2024-02-19T00:07:39.552Z,59.60
2024-02-19T00:08:39.467Z,58.30
2024-02-19T00:09:39.588Z,58.42
2024-02-19T00:10:39.618Z,61.97
2024-02-19T00:11:39.774Z,59.27
2024-02-19T00:12:39.830Z,61.94
2024-02-19T00:13:39.797Z,62.20
2024-02-19T00:14:39.853Z,62.08
2024-02-19T00:15:39.989Z,60.74
2024-02-19T00:16:43.508Z,61.67
2024-02-19T00:17:40.107Z,62.25
2024-02-19T00:18:40.116Z,61.01
2024-02-19T00:19:39.997Z,60.73
2024-02-19T00:20:40.021Z,62.41
2024-02-19T00:21:40.066Z,59.54
2024-02-19T00:22:39.981Z,62.36
2024-02-19T00:23:39.988Z,61.30
2024-02-19T00:24:40.031Z,62.44
2024-02-19T00:25:40.015Z,60.37
2024-02-19T00:26:40.004Z,60.60
2024-02-19T00:27:40.310Z,61.08
2024-02-19T00:28:40.011Z,59.86
2024-02-19T00:29:40.020Z,60.26
2024-02-19T00:30:40.007Z,59.39
2024-02-19T00:31:39.976Z,63.17
2024-02-19T00:32:40.078Z,62.74
2024-02-19T00:33:40.124Z,60.26
2024-02-19T00:34:40.046Z,63.03
2024-02-19T00:35:40.014Z,61.41
2024-02-19T00:36:40.066Z,61.53
2024-02-19T00:37:40.031Z,61.95
2024-02-19T00:38:40.030Z,62.94
2024-02-19T00:39:40.042Z,60.13
2024-02-19T00:40:40.040Z,60.94
2024-02-19T00:41:40.046Z,62.62
2024-02-19T00:42:40.294Z,59.96
2024-02-19T00:43:40.204Z,60.71
2024-02-19T00:44:40.239Z,60.13
2024-02-19T00:45:40.380Z,59.15
2024-02-19T00:46:40.392Z,59.57
2024-02-19T00:47:40.474Z,59.85
2024-02-19T00:48:40.555Z,59.59
2024-02-19T00:49:40.833Z,60.34
2024-02-19T00:50:40.574Z,59.36
2024-02-19T00:51:40.666Z,60.86
2024-02-19T00:52:40.695Z,59.08
2024-02-19T00:53:40.761Z,59.97
2024-02-19T00:54:40.830Z,57.69
2024-02-19T00:55:40.858Z,58.92
2024-02-19T00:56:40.906Z,60.92
2024-02-19T00:57:40.988Z,57.28
2024-02-19T00:58:41.028Z,61.59
2024-02-19T00:59:41.043Z,60.93
2024-02-19T01:00:41.180Z,62.20
2024-02-19T01:01:41.235Z,57.90
2024-02-19T01:02:41.220Z,60.04
2024-02-19T01:03:41.348Z,60.84
2024-02-19T01:04:41.365Z,60.17
2024-02-19T01:05:41.438Z,58.40
2024-02-19T01:06:41.444Z,57.59
2024-02-19T01:07:41.442Z,59.51
2024-02-19T01:08:41.504Z,59.19
2024-02-19T01:09:41.557Z,62.21
2024-02-19T01:10:41.617Z,60.06
2024-02-19T01:11:41.560Z,60.28
2024-02-19T01:12:41.693Z,59.15
2024-02-19T01:13:41.694Z,59.24
2024-02-19T01:14:41.807Z,59.45
2024-02-19T01:15:41.775Z,60.55
2024-02-19T01:16:41.815Z,59.80
2024-02-19T01:17:41.832Z,58.58
2024-02-19T01:18:41.934Z,62.19
2024-02-19T01:19:42.018Z,60.99
2024-02-19T01:20:41.948Z,60.84
2024-02-19T01:21:42.024Z,58.65
2024-02-19T01:22:42.068Z,59.76
2024-02-19T01:23:42.109Z,58.49
2024-02-19T01:24:42.285Z,59.77
2024-02-19T01:25:42.250Z,57.47
2024-02-19T01:26:42.368Z,59.67
2024-02-19T01:27:42.464Z,58.50
2024-02-19T01:28:42.558Z,57.45
2024-02-19T01:29:42.561Z,60.83
2024-02-19T01:30:42.642Z,60.55
2024-02-19T01:31:42.661Z,61.11
2024-02-19T01:32:42.768Z,60.73
2024-02-19T01:33:42.910Z,63.07
2024-02-19T01:34:43.057Z,59.33
2024-02-19T01:35:42.907Z,62.21
2024-02-19T01:36:42.995Z,61.40
2024-02-19T01:37:43.098Z,62.91
2024-02-19T01:38:43.252Z,58.47
2024-02-19T01:39:43.151Z,59.60
2024-02-19T01:40:43.855Z,60.31
2024-02-19T01:41:43.264Z,61.26
2024-02-19T01:42:43.403Z,61.46
2024-02-19T01:43:43.416Z,60.56
2024-02-19T01:44:43.468Z,61.03
2024-02-19T01:45:43.511Z,60.18
2024-02-19T01:46:43.550Z,59.01
2024-02-19T01:47:43.620Z,57.61
2024-02-19T01:48:43.717Z,60.46
2024-02-19T01:49:43.858Z,61.68
2024-02-19T01:50:43.805Z,59.45
2024-02-19T01:51:43.936Z,61.34
2024-02-19T01:52:43.937Z,60.97
2024-02-19T01:53:43.988Z,59.50
2024-02-19T01:54:44.089Z,60.99
2024-02-19T01:55:44.139Z,59.76
2024-02-19T01:56:44.160Z,60.40
2024-02-19T01:57:44.295Z,60.42
2024-02-19T01:58:44.358Z,61.58
2024-02-19T01:59:44.420Z,58.55
2024-02-19T02:00:44.542Z,59.97
2024-02-19T02:01:44.693Z,57.97
2024-02-19T02:02:44.619Z,60.77
2024-02-19T02:03:44.600Z,59.00
2024-02-19T02:04:44.685Z,60.94
2024-02-19T02:05:44.691Z,59.36
2024-02-19T02:06:44.760Z,61.16
2024-02-19T02:07:44.782Z,60.89
2024-02-19T02:08:44.792Z,59.85
2024-02-19T02:09:44.890Z,59.10
2024-02-19T02:10:44.989Z,62.22
2024-02-19T02:11:44.971Z,59.25
2024-02-19T02:12:45.413Z,61.32
2024-02-19T02:13:45.062Z,59.66
2024-02-19T02:14:45.072Z,60.25
2024-02-19T02:15:45.164Z,60.55
2024-02-19T02:16:45.238Z,57.91
2024-02-19T02:17:45.605Z,58.74
2024-02-19T02:18:45.303Z,60.48
2024-02-19T02:19:45.413Z,59.01
2024-02-19T02:20:45.330Z,60.49
2024-02-19T02:21:45.392Z,59.37
2024-02-19T02:22:45.389Z,58.17
2024-02-19T02:23:45.413Z,59.48
2024-02-19T02:24:45.476Z,60.57
2024-02-19T02:25:45.504Z,56.88
2024-02-19T02:26:45.538Z,58.87
2024-02-19T02:27:45.628Z,58.68
2024-02-19T02:28:45.603Z,62.86
2024-02-19T02:29:45.647Z,59.42
2024-02-19T02:30:45.717Z,59.43
2024-02-19T02:31:45.728Z,59.53
2024-02-19T02:32:45.754Z,61.21
2024-02-19T02:33:45.869Z,58.62
2024-02-19T02:34:45.795Z,61.26
2024-02-19T02:35:45.742Z,57.91
2024-02-19T02:36:45.780Z,58.05
2024-02-19T02:37:45.793Z,58.34
2024-02-19T02:38:45.829Z,58.30
2024-02-19T02:39:45.873Z,59.91
2024-02-19T02:40:45.868Z,57.80
2024-02-19T02:41:45.882Z,61.46
2024-02-19T02:42:45.990Z,60.65
2024-02-19T02:43:45.969Z,61.50
2024-02-19T02:44:46.009Z,58.80
2024-02-19T02:45:46.058Z,60.38
2024-02-19T02:46:46.024Z,59.25
2024-02-19T02:47:46.064Z,60.30
2024-02-19T02:48:46.228Z,57.85
2024-02-19T02:49:46.065Z,59.62
2024-02-19T02:50:46.075Z,58.85
2024-02-19T02:51:46.104Z,58.40
2024-02-19T02:52:46.111Z,59.03
2024-02-19T02:53:46.072Z,57.11
2024-02-19T02:54:46.158Z,60.37
2024-02-19T02:55:46.137Z,60.02
2024-02-19T02:56:46.167Z,58.05
2024-02-19T02:57:46.276Z,57.27
2024-02-19T02:58:46.227Z,58.87
2024-02-19T02:59:46.270Z,57.85
2024-02-19T03:00:46.398Z,57.76
2024-02-19T03:01:46.353Z,55.51
2024-02-19T03:02:46.325Z,57.51
2024-02-19T03:03:46.406Z,57.60
2024-02-19T03:04:46.554Z,58.25
2024-02-19T03:05:46.362Z,59.12
2024-02-19T03:06:46.570Z,61.93
2024-02-19T03:07:46.524Z,59.24
2024-02-19T03:08:46.499Z,57.86
2024-02-19T03:09:46.579Z,59.52
2024-02-19T03:10:46.568Z,59.34
2024-02-19T03:11:46.539Z,59.19
2024-02-19T03:12:46.582Z,57.40
2024-02-19T03:13:46.606Z,57.28
2024-02-19T03:14:46.612Z,57.50
2024-02-19T03:15:46.674Z,58.50
2024-02-19T03:16:46.645Z,58.10
2024-02-19T03:17:46.689Z,59.70
2024-02-19T03:18:47.005Z,58.91
2024-02-19T03:19:46.705Z,52.75
2024-02-19T03:20:46.650Z,57.31
2024-02-19T03:21:46.743Z,57.74
2024-02-19T03:22:46.732Z,54.59
2024-02-19T03:23:46.784Z,58.83
2024-02-19T03:24:46.803Z,60.93
2024-02-19T03:25:46.800Z,59.09
2024-02-19T03:26:46.859Z,58.89
2024-02-19T03:27:46.921Z,61.23
2024-02-19T03:28:46.920Z,59.80
2024-02-19T03:29:46.946Z,59.35
2024-02-19T03:30:46.991Z,59.21
2024-02-19T03:31:46.970Z,60.02
2024-02-19T03:32:47.041Z,59.44
2024-02-19T03:33:47.125Z,58.54
2024-02-19T03:34:47.053Z,56.71
2024-02-19T03:35:47.047Z,58.95
2024-02-19T03:36:47.099Z,58.35
2024-02-19T03:37:47.039Z,57.68
2024-02-19T03:38:47.053Z,58.56
2024-02-19T03:39:47.115Z,57.13
2024-02-19T03:40:47.096Z,57.39
2024-02-19T03:41:47.103Z,58.33
2024-02-19T03:42:47.171Z,56.88
2024-02-19T03:43:47.132Z,57.86
2024-02-19T03:44:47.133Z,59.12
2024-02-19T03:45:47.181Z,58.32
2024-02-19T03:46:47.252Z,57.22
2024-02-19T03:47:47.214Z,57.89
2024-02-19T03:48:47.237Z,59.86
2024-02-19T03:49:47.264Z,56.53
2024-02-19T03:50:47.182Z,57.10
2024-02-19T03:51:47.202Z,58.76
2024-02-19T03:52:47.226Z,57.44
2024-02-19T03:53:47.221Z,57.67
2024-02-19T03:54:47.276Z,57.64
2024-02-19T03:55:47.197Z,59.19
2024-02-19T03:56:47.209Z,57.38
2024-02-19T03:57:47.279Z,57.29
2024-02-19T03:58:47.226Z,56.94
2024-02-19T03:59:47.233Z,57.50
2024-02-19T04:00:47.307Z,59.53
2024-02-19T04:01:47.259Z,57.13
2024-02-19T04:02:47.218Z,56.82
2024-02-19T04:03:47.431Z,58.48
2024-02-19T04:04:47.264Z,57.95
2024-02-19T04:05:47.268Z,58.90
2024-02-19T04:06:47.368Z,58.21
2024-02-19T04:07:47.314Z,57.76
2024-02-19T04:08:47.379Z,56.93
2024-02-19T04:09:47.317Z,57.44
2024-02-19T04:10:47.292Z,56.71
2024-02-19T04:11:47.294Z,54.47
2024-02-19T04:12:47.335Z,57.57
2024-02-19T04:13:47.283Z,58.84
2024-02-19T04:14:47.319Z,57.01
2024-02-19T04:15:54.515Z,50.00
2024-02-19T04:16:54.471Z,50.00
2024-02-19T04:17:54.593Z,50.00
2024-02-19T04:18:54.683Z,50.00
2024-02-19T04:19:54.516Z,50.00
2024-02-19T04:20:54.535Z,53.49
2024-02-19T04:21:54.532Z,50.62
2024-02-19T04:22:54.492Z,50.88
2024-02-19T04:23:54.512Z,53.82
2024-02-19T04:24:54.532Z,52.52
2024-02-19T04:25:54.471Z,52.83
2024-02-19T04:26:54.519Z,52.06
2024-02-19T04:27:54.567Z,53.33
2024-02-19T04:28:54.565Z,51.97
2024-02-19T04:29:54.495Z,51.79
2024-02-19T04:31:01.711Z,50.00
2024-02-19T04:32:01.675Z,50.00
2024-02-19T04:33:01.785Z,50.00
2024-02-19T04:34:01.819Z,50.00
2024-02-19T04:35:01.826Z,50.00
2024-02-19T04:36:01.687Z,52.46
2024-02-19T04:37:01.671Z,51.38
2024-02-19T04:38:01.683Z,51.11
2024-02-19T04:39:01.666Z,53.38
2024-02-19T04:40:01.788Z,53.63
2024-02-19T04:41:01.703Z,53.46
2024-02-19T04:42:01.692Z,53.67
2024-02-19T04:43:01.713Z,52.21
2024-02-19T04:44:01.690Z,53.17
2024-02-19T04:45:01.671Z,50.87
2024-02-19T04:46:01.704Z,53.90
2024-02-19T04:47:01.672Z,51.28
2024-02-19T04:48:01.778Z,52.22
2024-02-19T04:49:01.826Z,50.00
2024-02-19T04:50:01.796Z,54.36
2024-02-19T04:51:01.657Z,52.77
2024-02-19T04:52:01.780Z,54.50
2024-02-19T04:53:01.677Z,54.29
2024-02-19T04:54:01.665Z,51.74
2024-02-19T04:55:01.781Z,52.31
2024-02-19T04:56:01.675Z,53.08
2024-02-19T04:57:01.681Z,52.40
2024-02-19T04:58:01.702Z,50.83
2024-02-19T04:59:01.710Z,56.54
2024-02-19T05:00:01.719Z,53.04
2024-02-19T05:01:01.798Z,53.16
2024-02-19T05:02:02.015Z,52.54
2024-02-19T05:03:01.726Z,53.35
2024-02-19T05:04:01.842Z,53.07
2024-02-19T05:05:01.837Z,53.55
2024-02-19T05:06:01.779Z,51.10
2024-02-19T05:07:01.750Z,52.91
2024-02-19T05:08:01.740Z,53.69
2024-02-19T05:09:01.692Z,52.42
2024-02-19T05:10:01.791Z,53.78
2024-02-19T05:11:01.845Z,53.61
2024-02-19T05:12:01.727Z,54.58
2024-02-19T05:13:01.835Z,54.86
2024-02-19T05:14:01.745Z,52.65
2024-02-19T05:15:01.696Z,53.88
2024-02-19T05:16:01.749Z,50.66
2024-02-19T05:17:01.820Z,52.39
2024-02-19T05:18:01.877Z,51.53
2024-02-19T05:19:01.872Z,53.95
2024-02-19T05:20:01.943Z,53.16
2024-02-19T05:21:01.713Z,52.16
2024-02-19T05:22:01.734Z,52.83
2024-02-19T05:23:01.709Z,53.24
2024-02-19T05:24:01.724Z,52.74
2024-02-19T05:25:01.770Z,53.59
2024-02-19T05:26:01.707Z,53.06
2024-02-19T05:27:01.721Z,53.32
2024-02-19T05:28:01.780Z,50.26
2024-02-19T05:29:01.765Z,53.38
2024-02-19T05:30:01.701Z,53.52
2024-02-19T05:31:01.754Z,50.42
2024-02-19T05:32:01.707Z,53.12
2024-02-19T05:33:01.783Z,53.34
2024-02-19T05:34:01.744Z,51.32
2024-02-19T05:35:01.773Z,51.84
2024-02-19T05:36:01.722Z,55.28
2024-02-19T05:37:01.770Z,53.31
2024-02-19T05:38:01.756Z,53.76
2024-02-19T05:39:01.750Z,54.58
2024-02-19T05:40:01.925Z,51.07
2024-02-19T05:41:01.741Z,52.49
2024-02-19T05:42:01.726Z,52.68
2024-02-19T05:43:01.782Z,53.25
2024-02-19T05:44:01.742Z,54.18
2024-02-19T05:45:01.748Z,54.10
2024-02-19T05:46:01.754Z,51.54
2024-02-19T05:47:01.716Z,53.92
2024-02-19T05:48:01.910Z,54.11
2024-02-19T05:49:01.796Z,52.90
2024-02-19T05:50:01.912Z,55.74
2024-02-19T05:51:01.716Z,55.04
2024-02-19T05:52:01.796Z,55.98
2024-02-19T05:53:01.787Z,53.19
2024-02-19T05:54:01.728Z,51.71
2024-02-19T05:55:01.778Z,50.00
2024-02-19T05:56:01.761Z,51.78
2024-02-19T05:57:01.764Z,50.46
2024-02-19T05:58:01.802Z,50.00
2024-02-19T05:59:01.773Z,50.00
2024-02-19T06:00:01.728Z,50.00
2024-02-19T06:01:01.910Z,50.81
2024-02-19T06:02:01.927Z,50.00
2024-02-19T06:03:01.789Z,52.94
2024-02-19T06:04:01.815Z,54.48
2024-02-19T06:05:03.581Z,53.24
2024-02-19T06:06:01.825Z,51.39
2024-02-19T06:07:01.872Z,52.53
2024-02-19T06:08:01.795Z,50.80
2024-02-19T06:09:01.776Z,52.90
2024-02-19T06:10:01.811Z,51.24
2024-02-19T06:11:01.820Z,53.65
2024-02-19T06:12:01.798Z,52.54
2024-02-19T06:13:01.819Z,51.19
2024-02-19T06:14:01.791Z,50.11
2024-02-19T06:15:01.814Z,52.08
2024-02-19T06:16:01.833Z,52.85
2024-02-19T06:17:01.818Z,52.25
2024-02-19T06:18:01.896Z,50.00
2024-02-19T06:19:01.840Z,53.90
2024-02-19T06:20:01.828Z,50.97
2024-02-19T06:21:01.803Z,55.58
2024-02-19T06:22:01.814Z,58.00
2024-02-19T06:23:01.782Z,59.89
2024-02-19T06:24:01.765Z,60.79
2024-02-19T06:25:01.840Z,61.27
2024-02-19T06:26:01.828Z,62.59
2024-02-19T06:27:01.791Z,64.37
2024-02-19T06:28:01.823Z,68.76
2024-02-19T06:29:01.772Z,69.30
2024-02-19T06:30:01.802Z,68.19
2024-02-19T06:31:01.941Z,73.16
2024-02-19T06:32:01.802Z,72.66
2024-02-19T06:33:01.997Z,75.53
2024-02-19T06:34:01.963Z,73.85
2024-02-19T06:35:01.963Z,72.89
2024-02-19T06:36:01.802Z,73.56
2024-02-19T06:37:01.845Z,73.79
2024-02-19T06:38:01.825Z,77.63
2024-02-19T06:39:01.791Z,76.90
2024-02-19T06:40:01.893Z,76.61
2024-02-19T06:41:01.838Z,77.73
2024-02-19T06:42:01.842Z,77.99
2024-02-19T06:43:01.864Z,79.95
2024-02-19T06:44:01.802Z,81.68
2024-02-19T06:45:01.818Z,85.35
2024-02-19T06:46:01.957Z,86.25
2024-02-19T06:47:01.850Z,90.02
2024-02-19T06:48:01.944Z,91.69
2024-02-19T06:49:01.913Z,92.67
2024-02-19T06:50:01.879Z,93.61
2024-02-19T06:51:01.918Z,95.07
2024-02-19T06:52:01.915Z,96.74
2024-02-19T06:53:01.850Z,100.28
2024-02-19T06:54:01.838Z,110.05
2024-02-19T06:55:01.857Z,112.21
2024-02-19T06:56:01.854Z,115.02
2024-02-19T06:57:01.825Z,119.59
2024-02-19T06:58:01.853Z,120.53
2024-02-19T06:59:01.817Z,130.53
2024-02-19T07:00:01.865Z,131.83
2024-02-19T07:01:01.939Z,137.88
2024-02-19T07:02:05.110Z,139.06
2024-02-19T07:03:02.849Z,139.37
2024-02-19T07:04:01.880Z,140.74
2024-02-19T07:05:02.024Z,142.95
2024-02-19T07:06:01.823Z,147.23
2024-02-19T07:07:01.880Z,155.25
2024-02-19T07:08:01.845Z,162.37
2024-02-19T07:09:01.841Z,161.80
2024-02-19T07:10:02.051Z,166.32
2024-02-19T07:11:01.850Z,169.56
2024-02-19T07:12:01.853Z,172.26
2024-02-19T07:13:01.931Z,176.37
2024-02-19T07:14:01.868Z,178.80
2024-02-19T07:15:01.867Z,180.11
2024-02-19T07:16:01.936Z,180.11
2024-02-19T07:17:01.840Z,181.22
2024-02-19T07:18:01.925Z,182.99
2024-02-19T07:19:01.923Z,184.41
2024-02-19T07:20:02.176Z,186.56
2024-02-19T07:21:01.838Z,188.61
2024-02-19T07:22:01.915Z,192.30
2024-02-19T07:23:01.872Z,197.14
2024-02-19T07:24:01.951Z,197.42
2024-02-19T07:25:10.271Z,197.43
2024-02-19T07:26:03.046Z,197.64
2024-02-19T07:27:01.906Z,198.50
2024-02-19T07:28:01.997Z,200.33
2024-02-19T07:29:01.934Z,204.00
2024-02-19T07:30:01.949Z,211.20
2024-02-19T07:31:01.965Z,199.82
2024-02-19T07:32:01.923Z,198.82
2024-02-19T07:33:01.951Z,199.88
2024-02-19T07:34:02.153Z,197.61
2024-02-19T07:35:01.953Z,200.00
2024-02-19T07:36:01.920Z,200.00
2024-02-19T07:37:01.947Z,198.54
2024-02-19T07:38:01.912Z,200.00
2024-02-19T07:39:01.977Z,198.71
2024-02-19T07:40:01.962Z,200.00
2024-02-19T07:41:01.944Z,199.15
2024-02-19T07:42:01.921Z,198.09
2024-02-19T07:43:01.952Z,198.39
2024-02-19T07:44:01.923Z,199.07
2024-02-19T07:45:01.930Z,198.12
2024-02-19T07:46:02.000Z,199.30
2024-02-19T07:47:03.625Z,197.90
2024-02-19T07:48:02.155Z,198.51
2024-02-19T07:49:02.111Z,196.98
2024-02-19T07:50:02.150Z,197.92
2024-02-19T07:51:01.928Z,199.05
2024-02-19T07:52:01.979Z,197.99
2024-02-19T07:53:01.968Z,199.23
2024-02-19T07:54:01.942Z,197.82
2024-02-19T07:55:01.968Z,198.43
2024-02-19T07:56:01.961Z,198.34
2024-02-19T07:57:01.944Z,197.91
2024-02-19T07:58:02.021Z,198.00
2024-02-19T07:59:01.975Z,197.45
2024-02-19T08:00:02.134Z,197.17
2024-02-19T08:01:04.603Z,197.09
2024-02-19T08:02:02.106Z,195.13
2024-02-19T08:03:01.959Z,196.03
2024-02-19T08:04:02.132Z,194.71
2024-02-19T08:05:02.325Z,195.05
2024-02-19T08:06:02.018Z,194.71
2024-02-19T08:07:02.289Z,194.42
2024-02-19T08:08:01.954Z,194.28
2024-02-19T08:09:02.012Z,193.38
2024-02-19T08:10:02.029Z,192.34
2024-02-19T08:11:01.985Z,191.75
2024-02-19T08:12:02.124Z,189.94
2024-02-19T08:13:02.097Z,191.57
2024-02-19T08:14:02.098Z,190.78
2024-02-19T08:15:01.988Z,191.50
2024-02-19T08:16:02.075Z,191.72
2024-02-19T08:17:01.938Z,191.51
2024-02-19T08:18:02.042Z,192.91
2024-02-19T08:19:02.133Z,189.98
2024-02-19T08:20:02.127Z,191.54
2024-02-19T08:21:01.966Z,189.66
2024-02-19T08:22:02.061Z,188.53
2024-02-19T08:23:02.018Z,188.23
2024-02-19T08:24:01.998Z,189.63
2024-02-19T08:25:02.167Z,186.74
2024-02-19T08:26:02.017Z,186.97
2024-02-19T08:27:01.986Z,187.78
2024-02-19T08:28:02.012Z,186.69
2024-02-19T08:29:02.016Z,186.14
2024-02-19T08:30:01.999Z,186.10
2024-02-19T08:31:02.055Z,191.68
2024-02-19T08:32:01.971Z,195.86
2024-02-19T08:33:02.034Z,195.46
2024-02-19T08:34:02.190Z,197.06
2024-02-19T08:35:02.080Z,193.88
2024-02-19T08:36:01.992Z,191.82
2024-02-19T08:37:02.085Z,188.46
2024-02-19T08:38:02.034Z,184.28
2024-02-19T08:39:02.108Z,178.12
2024-02-19T08:40:02.093Z,177.07
2024-02-19T08:41:02.001Z,170.80
2024-02-19T08:42:02.017Z,165.62
2024-02-19T08:43:02.099Z,164.67
2024-02-19T08:44:02.018Z,164.30
2024-02-19T08:45:02.039Z,165.80
2024-02-19T08:46:02.146Z,169.03
2024-02-19T08:47:02.029Z,168.90
2024-02-19T08:48:02.086Z,168.64
2024-02-19T08:49:02.184Z,168.75
2024-02-19T08:50:02.185Z,170.43
2024-02-19T08:51:02.067Z,167.77
2024-02-19T08:52:02.064Z,165.92
2024-02-19T08:53:02.062Z,166.22
2024-02-19T08:54:02.044Z,166.26
2024-02-19T08:55:02.195Z,166.67
2024-02-19T08:56:02.043Z,168.30
2024-02-19T08:57:02.015Z,168.27
2024-02-19T08:58:02.110Z,167.13
2024-02-19T08:59:02.146Z,164.28
2024-02-19T09:00:02.206Z,162.11
2024-02-19T09:01:02.452Z,160.28
2024-02-19T09:02:02.469Z,161.31
2024-02-19T09:03:02.417Z,158.92
2024-02-19T09:04:02.609Z,155.84
2024-02-19T09:05:02.611Z,154.21
2024-02-19T09:06:02.747Z,152.86
2024-02-19T09:07:02.790Z,153.54
2024-02-19T09:08:02.754Z,154.52
2024-02-19T09:09:02.828Z,152.16
2024-02-19T09:10:02.968Z,150.65
2024-02-19T09:11:03.010Z,150.10
2024-02-19T09:12:03.045Z,149.21
2024-02-19T09:13:03.171Z,149.21
2024-02-19T09:14:03.176Z,150.17
2024-02-19T09:15:03.209Z,147.50
2024-02-19T09:16:03.243Z,145.42
2024-02-19T09:17:03.286Z,145.16
2024-02-19T09:18:03.379Z,146.69
2024-02-19T09:19:03.515Z,146.76
2024-02-19T09:20:03.552Z,147.46
2024-02-19T09:21:03.486Z,145.07
2024-02-19T09:22:03.659Z,146.47
2024-02-19T09:23:03.575Z,146.52
2024-02-19T09:24:03.602Z,145.19
2024-02-19T09:25:03.703Z,145.39
2024-02-19T09:26:03.640Z,146.82
2024-02-19T09:27:03.674Z,142.68
2024-02-19T09:28:03.737Z,146.92
2024-02-19T09:29:03.753Z,147.80
2024-02-19T09:30:03.785Z,146.61
2024-02-19T09:31:03.883Z,147.11
2024-02-19T09:32:03.823Z,147.35
2024-02-19T09:33:03.954Z,147.71
2024-02-19T09:34:04.003Z,143.13
2024-02-19T09:35:04.168Z,145.25
2024-02-19T09:36:03.977Z,143.28
2024-02-19T09:37:04.140Z,145.12
2024-02-19T09:38:04.046Z,142.24
2024-02-19T09:39:04.097Z,142.58
2024-02-19T09:40:04.182Z,143.01
2024-02-19T09:41:04.189Z,144.41
2024-02-19T09:42:04.243Z,144.35
2024-02-19T09:43:04.284Z,146.48
2024-02-19T09:44:04.339Z,145.61
2024-02-19T09:45:04.368Z,145.36
2024-02-19T09:46:04.492Z,142.27
2024-02-19T09:47:04.470Z,143.75
2024-02-19T09:48:04.670Z,143.31
2024-02-19T09:49:04.671Z,141.04
2024-02-19T09:50:04.705Z,138.05
2024-02-19T09:51:04.722Z,140.83
2024-02-19T09:52:04.837Z,139.42
2024-02-19T09:53:04.842Z,139.51
2024-02-19T09:54:04.972Z,139.27
2024-02-19T09:55:05.046Z,139.22
2024-02-19T09:56:05.067Z,141.60
2024-02-19T09:57:05.144Z,141.45
2024-02-19T09:58:05.286Z,140.99
2024-02-19T09:59:05.299Z,140.37
2024-02-19T10:00:05.330Z,141.95
2024-02-19T10:01:05.451Z,143.14
2024-02-19T10:02:06.496Z,140.59
2024-02-19T10:03:05.517Z,143.35
2024-02-19T10:04:07.639Z,142.40
2024-02-19T10:05:05.757Z,145.36
2024-02-19T10:06:05.606Z,146.69
2024-02-19T10:07:05.651Z,148.84
2024-02-19T10:08:05.817Z,148.91
2024-02-19T10:09:05.528Z,150.66
2024-02-19T10:10:05.613Z,150.66
2024-02-19T10:11:05.554Z,151.74
2024-02-19T10:12:05.553Z,154.89
2024-02-19T10:13:05.530Z,155.27
2024-02-19T10:14:05.569Z,155.57
2024-02-19T10:15:05.525Z,157.83
2024-02-19T10:16:07.288Z,159.58
2024-02-19T10:17:05.549Z,162.34
2024-02-19T10:18:05.649Z,165.86
2024-02-19T10:19:05.945Z,168.46
2024-02-19T10:20:05.573Z,171.45
2024-02-19T10:21:05.543Z,172.71
2024-02-19T10:22:05.617Z,174.68
2024-02-19T10:23:05.580Z,176.89
2024-02-19T10:24:05.664Z,178.41
2024-02-19T10:25:05.591Z,177.70
2024-02-19T10:26:05.546Z,179.28
2024-02-19T10:27:05.565Z,181.28
2024-02-19T10:28:05.582Z,182.27
2024-02-19T10:29:05.574Z,183.12
2024-02-19T10:30:05.573Z,184.80
2024-02-19T10:31:05.606Z,186.44
2024-02-19T10:32:05.586Z,186.16
2024-02-19T10:33:05.639Z,183.61
2024-02-19T10:34:05.726Z,188.19
2024-02-19T10:35:05.683Z,186.50
2024-02-19T10:36:05.573Z,187.91
2024-02-19T10:37:05.602Z,188.08
2024-02-19T10:38:05.585Z,190.83
2024-02-19T10:39:05.619Z,189.87
2024-02-19T10:40:05.654Z,190.87
2024-02-19T10:41:07.461Z,191.57
2024-02-19T10:42:05.624Z,194.48
2024-02-19T10:43:05.711Z,193.10
2024-02-19T10:44:05.681Z,192.60
2024-02-19T10:45:05.651Z,193.97
2024-02-19T10:46:05.712Z,193.95
2024-02-19T10:47:05.706Z,197.29
2024-02-19T10:48:05.814Z,194.70
2024-02-19T10:49:05.909Z,192.92
2024-02-19T10:50:05.720Z,189.14
2024-02-19T10:51:05.675Z,188.41
2024-02-19T10:52:05.752Z,188.51
2024-02-19T10:53:05.758Z,186.13
2024-02-19T10:54:05.979Z,185.12
2024-02-19T10:55:13.346Z,185.45
2024-02-19T10:56:06.885Z,185.50
2024-02-19T10:57:05.768Z,184.54
2024-02-19T10:58:05.810Z,184.77
2024-02-19T10:59:05.806Z,184.46
2024-02-19T11:00:05.770Z,183.63
2024-02-19T11:01:06.042Z,183.59
2024-02-19T11:02:05.885Z,182.72
2024-02-19T11:03:05.820Z,184.16
2024-02-19T11:04:05.918Z,180.33
2024-02-19T11:05:05.810Z,183.60
2024-02-19T11:06:05.841Z,180.81
2024-02-19T11:07:05.857Z,183.18
2024-02-19T11:08:05.787Z,181.55
2024-02-19T11:09:05.792Z,182.59
2024-02-19T11:10:05.889Z,180.81
2024-02-19T11:11:05.956Z,181.55
2024-02-19T11:12:05.840Z,178.86
2024-02-19T11:13:05.834Z,180.85
2024-02-19T11:14:05.776Z,183.46
2024-02-19T11:15:05.803Z,184.26
2024-02-19T11:16:05.842Z,184.92
2024-02-19T11:17:05.898Z,180.50
2024-02-19T11:18:05.868Z,184.64
2024-02-19T11:19:05.830Z,185.08
2024-02-19T11:20:05.836Z,185.15
2024-02-19T11:21:05.823Z,183.38
2024-02-19T11:22:05.916Z,186.63
2024-02-19T11:23:05.793Z,185.61
2024-02-19T11:24:05.839Z,184.40
2024-02-19T11:25:05.838Z,187.33
2024-02-19T11:26:05.804Z,183.68
2024-02-19T11:27:05.808Z,184.89
2024-02-19T11:28:05.830Z,187.24
2024-02-19T11:29:05.821Z,186.76
2024-02-19T11:30:05.805Z,186.42
2024-02-19T11:31:05.886Z,186.25
2024-02-19T11:32:05.793Z,186.27
2024-02-19T11:33:05.854Z,188.58
2024-02-19T11:34:05.874Z,188.28
2024-02-19T11:35:05.841Z,186.37
2024-02-19T11:36:05.813Z,188.84
2024-02-19T11:37:05.885Z,189.38
2024-02-19T11:38:05.893Z,189.38
2024-02-19T11:39:05.866Z,186.75
2024-02-19T11:40:05.886Z,188.19
2024-02-19T11:41:05.850Z,186.59
2024-02-19T11:42:07.503Z,187.75
2024-02-19T11:43:05.924Z,187.20
2024-02-19T11:44:05.890Z,185.64
2024-02-19T11:45:05.874Z,186.86
2024-02-19T11:46:05.950Z,184.22
2024-02-19T11:47:05.873Z,187.24
2024-02-19T11:48:06.049Z,185.95
2024-02-19T11:49:05.976Z,187.55
2024-02-19T11:50:06.072Z,187.27
2024-02-19T11:51:06.018Z,190.38
2024-02-19T11:52:10.974Z,191.39
2024-02-19T11:53:07.123Z,191.48
2024-02-19T11:54:06.098Z,191.68
2024-02-19T11:55:06.111Z,192.05
2024-02-19T11:56:06.168Z,192.40
2024-02-19T11:57:06.057Z,194.54
2024-02-19T11:58:06.204Z,195.04
2024-02-19T11:59:06.097Z,196.43
2024-02-19T12:00:06.087Z,196.35
2024-02-19T12:01:06.210Z,198.57
2024-02-19T12:02:07.555Z,199.11
2024-02-19T12:03:06.273Z,198.17
2024-02-19T12:04:06.340Z,196.79
2024-02-19T12:05:06.460Z,198.74
2024-02-19T12:06:06.470Z,197.91
2024-02-19T12:07:06.614Z,198.89
2024-02-19T12:08:06.652Z,197.91
2024-02-19T12:09:06.676Z,199.16
2024-02-19T12:10:06.835Z,197.95
2024-02-19T12:11:06.815Z,197.68
2024-02-19T12:12:07.011Z,200.00
2024-02-19T12:13:06.900Z,199.64
2024-02-19T12:14:06.933Z,196.59
2024-02-19T12:15:06.983Z,199.63
2024-02-19T12:16:07.144Z,200.00
2024-02-19T12:17:07.183Z,198.33
2024-02-19T12:18:07.190Z,199.82
2024-02-19T12:19:07.383Z,199.42
2024-02-19T12:20:07.364Z,197.58
2024-02-19T12:21:07.307Z,197.21
2024-02-19T12:22:07.468Z,198.43
2024-02-19T12:23:07.418Z,198.54
2024-02-19T12:24:07.469Z,197.97
2024-02-19T12:25:07.610Z,198.37
2024-02-19T12:26:09.309Z,200.00
2024-02-19T12:27:07.589Z,197.91
2024-02-19T12:28:07.707Z,200.00
2024-02-19T12:29:07.715Z,200.00
2024-02-19T12:30:07.777Z,199.13
2024-02-19T12:31:07.801Z,200.00
2024-02-19T12:32:07.851Z,198.96
2024-02-19T12:33:08.018Z,196.54
2024-02-19T12:34:08.181Z,198.93
2024-02-19T12:35:08.352Z,197.73
2024-02-19T12:36:08.156Z,200.00
2024-02-19T12:37:08.325Z,199.62
2024-02-19T12:38:08.246Z,197.66
2024-02-19T12:39:08.351Z,196.04
2024-02-19T12:40:08.454Z,194.10
2024-02-19T12:41:08.437Z,194.69
2024-02-19T12:42:11.085Z,191.84